Disclaimer

Please do not use the information listed here in-flight or in-navigation, as they are not provided to us by the airports but are provided by volunteers, so they might be outdated.

Search


Regions


Airport information page

Radio informations:
Melbourne Center - 121.85 MHz
Common traffic adv. frequency (CTAF) - 126.9 MHz
Automatic Terminal Information Service (ATIS) - 126.55 MHz

Airport informations:
Latitude: 25° 11' 10.00" S
Longitude: 130° 58' 32.00" E
Elevation: 1626 feet - 496 meters
Operating hours: N/A
Operating agency: Civil government, landing fees and diplomatic clearance may be required
Timezone: UTC+9:30
Fuel: Jet A1, without icing nhibitor.

100/130 MIL Spec, low lead, aviation gasoline (BLUE)

Runway information:
13/31 - 8527 x 98 feet< - >2599 x 30 meters

Recent METARs:
YAYE 141600Z AUTO 13010KT 9999 // SCT100 27/11 Q1016
YAYE 141600Z AUTO 13010KT 9999 // SCT100 27/11 Q1016
YAYE 141700Z AUTO 13010KT 9999 // SCT088 26/10 Q1017

Airport on the map: